sensor_id;sensor_type;location;lat;lon;timestamp;pressure;altitude;pressure_sealevel;temperature;humidity
12759;BME280;20944;47.048;15.390;2023-02-24T00:00:26;97146.03;;;6.58;100.00
12759;BME280;20944;47.048;15.390;2023-02-24T00:03:04;97139.16;;;6.56;100.00
12759;BME280;20944;47.048;15.390;2023-02-24T00:05:37;97154.81;;;6.53;100.00
12759;BME280;20944;47.048;15.390;2023-02-24T00:08:08;97132.91;;;6.64;100.00
12759;BME280;20944;47.048;15.390;2023-02-24T00:10:38;97133.81;;;6.63;100.00
12759;BME280;20944;47.048;15.390;2023-02-24T00:13:07;97129.69;;;6.52;100.00
12759;BME280;20944;47.048;15.390;2023-02-24T00:15:37;97142.19;;;6.33;100.00
12759;BME280;20944;47.048;15.390;2023-02-24T00:18:06;97129.38;;;6.22;100.00
12759;BME280;20944;47.048;15.390;2023-02-24T00:20:34;97126.91;;;6.17;100.00
12759;BME280;20944;47.048;15.390;2023-02-24T00:23:03;97121.69;;;6.16;100.00
12759;BME280;20944;47.048;15.390;2023-02-24T00:25:31;97126.03;;;6.17;100.00
12759;BME280;20944;47.048;15.390;2023-02-24T00:28:00;97134.84;;;6.10;100.00
12759;BME280;20944;47.048;15.390;2023-02-24T00:30:29;97093.56;;;5.91;100.00
12759;BME280;20944;47.048;15.390;2023-02-24T00:32:58;97109.81;;;6.04;100.00
12759;BME280;20944;47.048;15.390;2023-02-24T00:35:28;97116.66;;;6.10;100.00
12759;BME280;20944;47.048;15.390;2023-02-24T00:37:56;97109.78;;;6.06;100.00
12759;BME280;20944;47.048;15.390;2023-02-24T00:40:25;97105.34;;;6.09;100.00
12759;BME280;20944;47.048;15.390;2023-02-24T00:42:56;97098.59;;;6.01;100.00
12759;BME280;20944;47.048;15.390;2023-02-24T00:45:25;97090.16;;;5.86;100.00
12759;BME280;20944;47.048;15.390;2023-02-24T00:47:56;97096.19;;;5.88;100.00
12759;BME280;20944;47.048;15.390;2023-02-24T00:50:25;97099.63;;;5.92;100.00
12759;BME280;20944;47.048;15.390;2023-02-24T00:52:53;97091.69;;;6.00;100.00
12759;BME280;20944;47.048;15.390;2023-02-24T00:55:21;97089.97;;;5.97;100.00
12759;BME280;20944;47.048;15.390;2023-02-24T00:57:49;97067.75;;;5.79;100.00
12759;BME280;20944;47.048;15.390;2023-02-24T01:00:18;97077.09;;;5.92;100.00
12759;BME280;20944;47.048;15.390;2023-02-24T01:02:50;97084.06;;;5.87;100.00
12759;BME280;20944;47.048;15.390;2023-02-24T01:05:18;97053.28;;;5.64;100.00
12759;BME280;20944;47.048;15.390;2023-02-24T01:07:46;97079.75;;;5.86;100.00
12759;BME280;20944;47.048;15.390;2023-02-24T01:10:15;97079.88;;;5.80;100.00
12759;BME280;20944;47.048;15.390;2023-02-24T01:12:44;97077.38;;;5.74;100.00
12759;BME280;20944;47.048;15.390;2023-02-24T01:15:18;97064.56;;;5.63;100.00
12759;BME280;20944;47.048;15.390;2023-02-24T01:17:47;97063.47;;;5.77;100.00
12759;BME280;20944;47.048;15.390;2023-02-24T01:20:17;97069.59;;;5.74;100.00
12759;BME280;20944;47.048;15.390;2023-02-24T01:22:47;97059.09;;;5.79;100.00
12759;BME280;20944;47.048;15.390;2023-02-24T01:25:16;97051.63;;;5.60;100.00
12759;BME280;20944;47.048;15.390;2023-02-24T01:27:46;96996.00;;;5.21;100.00
12759;BME280;20944;47.048;15.390;2023-02-24T01:30:14;97062.19;;;5.51;100.00
12759;BME280;20944;47.048;15.390;2023-02-24T01:32:44;97053.63;;;5.45;100.00
12759;BME280;20944;47.048;15.390;2023-02-24T01:35:14;97031.34;;;5.31;100.00
12759;BME280;20944;47.048;15.390;2023-02-24T01:37:43;97025.25;;;5.32;100.00
12759;BME280;20944;47.048;15.390;2023-02-24T01:40:13;97034.75;;;5.35;100.00
12759;BME280;20944;47.048;15.390;2023-02-24T01:42:48;96997.00;;;5.14;100.00
12759;BME280;20944;47.048;15.390;2023-02-24T01:45:19;97004.69;;;5.20;100.00
12759;BME280;20944;47.048;15.390;2023-02-24T01:47:51;97040.72;;;5.41;100.00
12759;BME280;20944;47.048;15.390;2023-02-24T01:50:21;97033.66;;;5.48;100.00
12759;BME280;20944;47.048;15.390;2023-02-24T01:52:54;97034.53;;;5.49;100.00
12759;BME280;20944;47.048;15.390;2023-02-24T01:55:26;97032.69;;;5.52;100.00
12759;BME280;20944;47.048;15.390;2023-02-24T01:58:00;97006.84;;;5.46;100.00
12759;BME280;20944;47.048;15.390;2023-02-24T02:00:31;97029.19;;;5.56;100.00
12759;BME280;20944;47.048;15.390;2023-02-24T02:03:11;97036.97;;;5.56;100.00
12759;BME280;20944;47.048;15.390;2023-02-24T02:05:41;97025.75;;;5.53;100.00
12759;BME280;20944;47.048;15.390;2023-02-24T02:08:13;97002.75;;;5.34;100.00
12759;BME280;20944;47.048;15.390;2023-02-24T02:10:42;97023.34;;;5.44;100.00
12759;BME280;20944;47.048;15.390;2023-02-24T02:13:13;97028.53;;;5.44;100.00
12759;BME280;20944;47.048;15.390;2023-02-24T02:18:46;97008.78;;;5.35;100.00
12759;BME280;20944;47.048;15.390;2023-02-24T02:21:56;97037.13;;;5.49;100.00
12759;BME280;20944;47.048;15.390;2023-02-24T02:24:49;97006.03;;;5.43;100.00
12759;BME280;20944;47.048;15.390;2023-02-24T02:27:37;97038.69;;;5.57;100.00
12759;BME280;20944;47.048;15.390;2023-02-24T02:36:31;97015.66;;;5.37;100.00
12759;BME280;20944;47.048;15.390;2023-02-24T02:39:10;97030.25;;;5.45;100.00
12759;BME280;20944;47.048;15.390;2023-02-24T02:41:47;96976.16;;;5.19;100.00
12759;BME280;20944;47.048;15.390;2023-02-24T02:44:21;97024.91;;;5.54;100.00
12759;BME280;20944;47.048;15.390;2023-02-24T02:46:56;97009.78;;;5.26;100.00
12759;BME280;20944;47.048;15.390;2023-02-24T02:49:30;97021.78;;;5.35;100.00
12759;BME280;20944;47.048;15.390;2023-02-24T02:52:06;97017.34;;;5.40;100.00
12759;BME280;20944;47.048;15.390;2023-02-24T02:54:43;97031.09;;;5.45;100.00
12759;BME280;20944;47.048;15.390;2023-02-24T02:57:17;97027.81;;;5.35;100.00
12759;BME280;20944;47.048;15.390;2023-02-24T02:59:50;96928.50;;;4.72;100.00
12759;BME280;20944;47.048;15.390;2023-02-24T03:02:22;97009.94;;;5.17;100.00
12759;BME280;20944;47.048;15.390;2023-02-24T03:04:58;97020.09;;;5.31;100.00
12759;BME280;20944;47.048;15.390;2023-02-24T03:07:32;97011.38;;;5.33;100.00
12759;BME280;20944;47.048;15.390;2023-02-24T03:10:06;97021.78;;;5.33;100.00
12759;BME280;20944;47.048;15.390;2023-02-24T03:12:38;97020.81;;;5.39;100.00
12759;BME280;20944;47.048;15.390;2023-02-24T03:15:09;97012.16;;;5.38;100.00
12759;BME280;20944;47.048;15.390;2023-02-24T03:17:42;96842.53;;;4.41;100.00
12759;BME280;20944;47.048;15.390;2023-02-24T03:20:15;97016.28;;;5.50;100.00
12759;BME280;20944;47.048;15.390;2023-02-24T03:22:53;96997.47;;;5.37;100.00
12759;BME280;20944;47.048;15.390;2023-02-24T03:25:25;97012.00;;;5.49;100.00
12759;BME280;20944;47.048;15.390;2023-02-24T03:27:59;97010.28;;;5.47;100.00
12759;BME280;20944;47.048;15.390;2023-02-24T03:30:38;96832.97;;;4.43;100.00
12759;BME280;20944;47.048;15.390;2023-02-24T03:33:12;97010.28;;;5.47;100.00
12759;BME280;20944;47.048;15.390;2023-02-24T03:35:44;97003.41;;;5.44;100.00
12759;BME280;20944;47.048;15.390;2023-02-24T03:38:13;97004.28;;;5.45;100.00
12759;BME280;20944;47.048;15.390;2023-02-24T03:40:41;97002.50;;;5.47;100.00
12759;BME280;20944;47.048;15.390;2023-02-24T03:43:13;97049.28;;;5.45;100.00
12759;BME280;20944;47.048;15.390;2023-02-24T03:45:43;96978.47;;;5.34;100.00
12759;BME280;20944;47.048;15.390;2023-02-24T03:48:12;96989.53;;;5.45;100.00
12759;BME280;20944;47.048;15.390;2023-02-24T03:50:42;96993.59;;;5.61;100.00
12759;BME280;20944;47.048;15.390;2023-02-24T03:53:27;97003.00;;;5.65;100.00
12759;BME280;20944;47.048;15.390;2023-02-24T03:56:03;96959.44;;;5.35;100.00
12759;BME280;20944;47.048;15.390;2023-02-24T03:58:46;96995.53;;;5.49;100.00
12759;BME280;20944;47.048;15.390;2023-02-24T04:01:24;96993.16;;;5.36;100.00
12759;BME280;20944;47.048;15.390;2023-02-24T04:04:00;96995.00;;;5.30;100.00
12759;BME280;20944;47.048;15.390;2023-02-24T04:06:34;96996.75;;;5.28;100.00
12759;BME280;20944;47.048;15.390;2023-02-24T04:09:15;96991.56;;;5.28;100.00
12759;BME280;20944;47.048;15.390;2023-02-24T04:11:51;96999.34;;;5.28;100.00
12759;BME280;20944;47.048;15.390;2023-02-24T04:14:27;96980.31;;;5.27;100.00
12759;BME280;20944;47.048;15.390;2023-02-24T04:16:59;96948.72;;;5.02;100.00
12759;BME280;20944;47.048;15.390;2023-02-24T04:19:33;96989.97;;;5.22;100.00
12759;BME280;20944;47.048;15.390;2023-02-24T04:22:04;96960.56;;;5.19;100.00
12759;BME280;20944;47.048;15.390;2023-02-24T04:24:36;96955.34;;;5.20;100.00
12759;BME280;20944;47.048;15.390;2023-02-24T04:27:09;96974.28;;;5.28;100.00
12759;BME280;20944;47.048;15.390;2023-02-24T04:29:41;96975.97;;;5.28;100.00
12759;BME280;20944;47.048;15.390;2023-02-24T04:32:14;96973.41;;;5.26;100.00
12759;BME280;20944;47.048;15.390;2023-02-24T04:34:44;96973.38;;;5.29;100.00
12759;BME280;20944;47.048;15.390;2023-02-24T04:37:12;96970.94;;;5.20;100.00
12759;BME280;20944;47.048;15.390;2023-02-24T04:39:42;96978.00;;;5.12;100.00
12759;BME280;20944;47.048;15.390;2023-02-24T04:42:11;96973.63;;;5.16;100.00
12759;BME280;20944;47.048;15.390;2023-02-24T04:44:40;96887.00;;;4.72;100.00
12759;BME280;20944;47.048;15.390;2023-02-24T04:47:10;96968.19;;;5.29;100.00
12759;BME280;20944;47.048;15.390;2023-02-24T04:49:38;96954.41;;;5.24;100.00
12759;BME280;20944;47.048;15.390;2023-02-24T04:52:07;96937.25;;;5.17;100.00
12759;BME280;20944;47.048;15.390;2023-02-24T04:54:36;96957.72;;;5.32;100.00
12759;BME280;20944;47.048;15.390;2023-02-24T04:57:06;96950.16;;;5.20;100.00
12759;BME280;20944;47.048;15.390;2023-02-24T04:59:36;96945.84;;;5.19;100.00
12759;BME280;20944;47.048;15.390;2023-02-24T05:02:04;96933.13;;;5.05;100.00
12759;BME280;20944;47.048;15.390;2023-02-24T05:04:34;96834.28;;;4.16;100.00
12759;BME280;20944;47.048;15.390;2023-02-24T05:07:04;96950.34;;;5.11;100.00
12759;BME280;20944;47.048;15.390;2023-02-24T05:09:32;96947.78;;;5.08;100.00
12759;BME280;20944;47.048;15.390;2023-02-24T05:12:01;96946.03;;;5.10;100.00
12759;BME280;20944;47.048;15.390;2023-02-24T05:14:32;96944.19;;;5.15;100.00
12759;BME280;20944;47.048;15.390;2023-02-24T05:17:00;96934.84;;;5.05;100.00
12759;BME280;20944;47.048;15.390;2023-02-24T05:19:28;96938.31;;;5.05;100.00
12759;BME280;20944;47.048;15.390;2023-02-24T05:22:14;96938.34;;;5.04;100.00
12759;BME280;20944;47.048;15.390;2023-02-24T05:24:43;96913.41;;;4.94;100.00
12759;BME280;20944;47.048;15.390;2023-02-24T05:27:13;96937.44;;;5.05;100.00
12759;BME280;20944;47.048;15.390;2023-02-24T05:29:44;96924.38;;;5.11;100.00
12759;BME280;20944;47.048;15.390;2023-02-24T05:32:13;96922.66;;;5.10;100.00
12759;BME280;20944;47.048;15.390;2023-02-24T05:34:42;96925.22;;;5.11;100.00
12759;BME280;20944;47.048;15.390;2023-02-24T05:37:10;96913.19;;;5.06;100.00
12759;BME280;20944;47.048;15.390;2023-02-24T05:39:42;96891.75;;;4.95;100.00
12759;BME280;20944;47.048;15.390;2023-02-24T05:42:10;96895.31;;;4.89;100.00
12759;BME280;20944;47.048;15.390;2023-02-24T05:44:39;96894.53;;;4.85;100.00
12759;BME280;20944;47.048;15.390;2023-02-24T05:47:09;96919.31;;;5.02;100.00
12759;BME280;20944;47.048;15.390;2023-02-24T05:49:37;96921.06;;;5.03;100.00
12759;BME280;20944;47.048;15.390;2023-02-24T05:52:06;96898.59;;;5.00;100.00
12759;BME280;20944;47.048;15.390;2023-02-24T05:54:37;96882.47;;;4.81;100.00
12759;BME280;20944;47.048;15.390;2023-02-24T05:57:07;96912.63;;;4.88;100.00
12759;BME280;20944;47.048;15.390;2023-02-24T05:59:38;96862.09;;;4.58;100.00
12759;BME280;20944;47.048;15.390;2023-02-24T06:02:10;96906.75;;;4.77;100.00
12759;BME280;20944;47.048;15.390;2023-02-24T06:04:40;96908.50;;;4.77;100.00
12759;BME280;20944;47.048;15.390;2023-02-24T06:07:19;96911.09;;;4.78;100.00
12759;BME280;20944;47.048;15.390;2023-02-24T06:09:51;96919.72;;;4.77;100.00
12759;BME280;20944;47.048;15.390;2023-02-24T06:12:24;96909.38;;;4.76;100.00
12759;BME280;20944;47.048;15.390;2023-02-24T06:14:53;96912.91;;;4.73;100.00
12759;BME280;20944;47.048;15.390;2023-02-24T06:19:49;96918.06;;;4.75;100.00
12759;BME280;20944;47.048;15.390;2023-02-24T06:22:19;96917.22;;;4.73;100.00
12759;BME280;20944;47.048;15.390;2023-02-24T06:24:48;96919.75;;;4.76;100.00
12759;BME280;20944;47.048;15.390;2023-02-24T06:27:18;96918.88;;;4.78;100.00
12759;BME280;20944;47.048;15.390;2023-02-24T06:29:49;96819.59;;;4.16;100.00
12759;BME280;20944;47.048;15.390;2023-02-24T06:32:18;96912.63;;;4.88;100.00
12759;BME280;20944;47.048;15.390;2023-02-24T06:34:49;96919.44;;;4.96;100.00
12759;BME280;20944;47.048;15.390;2023-02-24T06:37:18;96872.09;;;4.81;100.00
12759;BME280;20944;47.048;15.390;2023-02-24T06:39:46;96899.50;;;4.96;100.00
12759;BME280;20944;47.048;15.390;2023-02-24T06:42:14;96914.69;;;5.19;100.00
12759;BME280;20944;47.048;15.390;2023-02-24T06:44:42;96912.13;;;5.18;100.00
12759;BME280;20944;47.048;15.390;2023-02-24T06:47:12;96912.13;;;5.18;100.00
12759;BME280;20944;47.048;15.390;2023-02-24T06:49:43;96890.66;;;5.09;100.00
12759;BME280;20944;47.048;15.390;2023-02-24T06:52:13;96915.31;;;5.32;100.00
12759;BME280;20944;47.048;15.390;2023-02-24T06:54:46;96891.25;;;5.24;100.00
12759;BME280;20944;47.048;15.390;2023-02-24T06:57:15;96919.66;;;5.31;100.00
12759;BME280;20944;47.048;15.390;2023-02-24T06:59:43;96921.47;;;5.26;100.00
12759;BME280;20944;47.048;15.390;2023-02-24T07:02:12;96916.19;;;5.32;100.00
12759;BME280;20944;47.048;15.390;2023-02-24T07:04:40;96910.81;;;5.40;100.00
12759;BME280;20944;47.048;15.390;2023-02-24T07:07:11;96909.03;;;5.44;100.00
12759;BME280;20944;47.048;15.390;2023-02-24T07:09:41;96903.66;;;5.54;100.00
12759;BME280;20944;47.048;15.390;2023-02-24T07:12:11;96882.00;;;5.54;100.00
12759;BME280;20944;47.048;15.390;2023-02-24T07:14:41;96885.47;;;5.54;100.00
12759;BME280;20944;47.048;15.390;2023-02-24T07:17:09;96899.06;;;5.67;100.00
12759;BME280;20944;47.048;15.390;2023-02-24T07:19:40;96893.81;;;5.68;100.00
12759;BME280;20944;47.048;15.390;2023-02-24T07:22:09;96877.53;;;5.59;100.00
12759;BME280;20944;47.048;15.390;2023-02-24T07:24:41;96881.00;;;5.59;100.00
12759;BME280;20944;47.048;15.390;2023-02-24T07:27:14;96901.78;;;5.61;100.00
12759;BME280;20944;47.048;15.390;2023-02-24T07:29:48;96884.59;;;5.54;100.00
12759;BME280;20944;47.048;15.390;2023-02-24T07:32:19;96902.56;;;5.64;100.00
12759;BME280;20944;47.048;15.390;2023-02-24T07:34:48;96902.44;;;5.71;100.00
12759;BME280;20944;47.048;15.390;2023-02-24T07:37:16;96902.38;;;5.74;100.00
12759;BME280;20944;47.048;15.390;2023-02-24T07:39:47;96889.28;;;5.78;100.00
12759;BME280;20944;47.048;15.390;2023-02-24T07:42:16;96895.06;;;5.94;100.00
12759;BME280;20944;47.048;15.390;2023-02-24T07:44:44;96807.78;;;5.42;100.00
12759;BME280;20944;47.048;15.390;2023-02-24T07:47:15;96896.91;;;5.87;100.00
12759;BME280;20944;47.048;15.390;2023-02-24T07:49:43;96845.09;;;5.78;100.00
12759;BME280;20944;47.048;15.390;2023-02-24T07:52:11;96776.91;;;5.67;100.00
12759;BME280;20944;47.048;15.390;2023-02-24T07:54:39;96874.59;;;6.55;100.00
12759;BME280;20944;47.048;15.390;2023-02-24T07:57:09;96867.97;;;6.77;100.00
12759;BME280;20944;47.048;15.390;2023-02-24T07:59:40;96869.13;;;6.99;100.00
12759;BME280;20944;47.048;15.390;2023-02-24T08:02:13;96852.34;;;7.11;100.00
12759;BME280;20944;47.048;15.390;2023-02-24T08:04:42;96855.09;;;7.38;100.00
12759;BME280;20944;47.048;15.390;2023-02-24T08:07:16;96850.25;;;7.55;100.00
12759;BME280;20944;47.048;15.390;2023-02-24T08:09:51;96837.03;;;7.61;100.00
12759;BME280;20944;47.048;15.390;2023-02-24T08:12:52;96854.91;;;8.03;100.00
12759;BME280;20944;47.048;15.390;2023-02-24T08:15:23;96852.50;;;8.25;100.00
12759;BME280;20944;47.048;15.390;2023-02-24T08:17:53;96838.91;;;8.43;100.00
12759;BME280;20944;47.048;15.390;2023-02-24T08:20:25;96817.84;;;8.49;100.00
12759;BME280;20944;47.048;15.390;2023-02-24T08:22:55;96832.84;;;8.69;100.00
12759;BME280;20944;47.048;15.390;2023-02-24T08:25:25;96760.88;;;8.34;100.00
12759;BME280;20944;47.048;15.390;2023-02-24T08:28:04;96838.38;;;8.86;100.00
12759;BME280;20944;47.048;15.390;2023-02-24T08:30:37;96748.22;;;8.48;100.00
12759;BME280;20944;47.048;15.390;2023-02-24T08:33:08;96810.94;;;8.98;100.00
12759;BME280;20944;47.048;15.390;2023-02-24T08:35:38;96754.28;;;8.50;100.00
12759;BME280;20944;47.048;15.390;2023-02-24T08:38:13;96820.94;;;9.12;100.00
12759;BME280;20944;47.048;15.390;2023-02-24T08:40:44;96814.94;;;9.08;100.00
12759;BME280;20944;47.048;15.390;2023-02-24T08:43:25;96796.66;;;9.08;100.00
12759;BME280;20944;47.048;15.390;2023-02-24T08:46:02;96771.88;;;8.95;100.00
12759;BME280;20944;47.048;15.390;2023-02-24T08:48:40;96700.81;;;8.60;100.00
12759;BME280;20944;47.048;15.390;2023-02-24T08:51:12;96789.56;;;9.35;100.00
12759;BME280;20944;47.048;15.390;2023-02-24T08:53:44;96797.44;;;9.59;100.00
12759;BME280;20944;47.048;15.390;2023-02-24T08:56:14;96767.19;;;9.52;100.00
12759;BME280;20944;47.048;15.390;2023-02-24T08:58:53;96797.94;;;9.68;100.00
12759;BME280;20944;47.048;15.390;2023-02-24T09:01:26;96805.03;;;9.65;100.00
12759;BME280;20944;47.048;15.390;2023-02-24T09:04:02;96790.75;;;9.73;100.00
12759;BME280;20944;47.048;15.390;2023-02-24T09:06:38;96784.34;;;9.82;100.00
12759;BME280;20944;47.048;15.390;2023-02-24T09:09:06;96783.28;;;9.86;100.00
12759;BME280;20944;47.048;15.390;2023-02-24T09:11:46;96776.31;;;9.87;100.00
12759;BME280;20944;47.048;15.390;2023-02-24T09:14:17;96774.13;;;9.98;100.00
12759;BME280;20944;47.048;15.390;2023-02-24T09:16:56;96776.19;;;10.12;100.00
12759;BME280;20944;47.048;15.390;2023-02-24T09:19:36;96781.56;;;10.31;100.00
12759;BME280;20944;47.048;15.390;2023-02-24T09:22:29;96765.31;;;10.65;100.00
12759;BME280;20944;47.048;15.390;2023-02-24T09:24:59;96773.13;;;10.87;100.00
12759;BME280;20944;47.048;15.390;2023-02-24T09:27:51;96773.25;;;10.84;100.00
12759;BME280;20944;47.048;15.390;2023-02-24T09:30:25;96763.81;;;10.79;100.00
12759;BME280;20944;47.048;15.390;2023-02-24T09:33:09;96754.44;;;10.74;100.00
12759;BME280;20944;47.048;15.390;2023-02-24T09:35:45;96749.53;;;10.66;100.00
12759;BME280;20944;47.048;15.390;2023-02-24T09:38:15;96753.59;;;10.73;100.00
12759;BME280;20944;47.048;15.390;2023-02-24T09:40:48;96762.72;;;10.85;100.00
12759;BME280;20944;47.048;15.390;2023-02-24T09:43:19;96756.53;;;10.86;100.00
12759;BME280;20944;47.048;15.390;2023-02-24T09:45:59;96750.84;;;10.97;100.00
12759;BME280;20944;47.048;15.390;2023-02-24T09:48:47;96747.78;;;11.07;100.00
12759;BME280;20944;47.048;15.390;2023-02-24T09:51:20;96753.59;;;11.14;100.00
12759;BME280;20944;47.048;15.390;2023-02-24T09:53:55;96588.19;;;10.21;100.00
12759;BME280;20944;47.048;15.390;2023-02-24T09:56:31;96745.69;;;11.34;100.00
12759;BME280;20944;47.048;15.390;2023-02-24T09:59:12;96742.06;;;11.56;100.00
12759;BME280;20944;47.048;15.390;2023-02-24T10:01:58;96738.19;;;11.65;100.00
12759;BME280;20944;47.048;15.390;2023-02-24T10:04:53;96724.13;;;11.66;100.00
12759;BME280;20944;47.048;15.390;2023-02-24T10:07:35;96682.22;;;11.64;100.00
12759;BME280;20944;47.048;15.390;2023-02-24T10:10:13;96724.38;;;12.16;100.00
12759;BME280;20944;47.048;15.390;2023-02-24T10:12:49;96715.09;;;12.09;100.00
12759;BME280;20944;47.048;15.390;2023-02-24T10:15:20;96725.44;;;12.12;100.00
12759;BME280;20944;47.048;15.390;2023-02-24T10:18:28;96668.22;;;12.01;100.00
12759;BME280;20944;47.048;15.390;2023-02-24T10:21:03;96672.25;;;12.26;75.72
12759;BME280;20944;47.048;15.390;2023-02-24T10:23:43;96714.16;;;12.63;71.47
12759;BME280;20944;47.048;15.390;2023-02-24T10:26:28;96686.72;;;12.52;71.46
12759;BME280;20944;47.048;15.390;2023-02-24T10:29:05;96574.00;;;11.95;71.63
12759;BME280;20944;47.048;15.390;2023-02-24T10:31:49;96705.69;;;12.74;68.91
12759;BME280;20944;47.048;15.390;2023-02-24T10:34:26;96699.16;;;12.65;69.65
12759;BME280;20944;47.048;15.390;2023-02-24T10:36:58;96694.13;;;12.61;68.55
12759;BME280;20944;47.048;15.390;2023-02-24T10:39:33;96697.44;;;12.47;69.05
12759;BME280;20944;47.048;15.390;2023-02-24T10:42:03;96681.38;;;12.36;70.05
12759;BME280;20944;47.048;15.390;2023-02-24T10:44:50;96671.03;;;12.33;70.09
12759;BME280;20944;47.048;15.390;2023-02-24T10:47:29;96600.81;;;12.02;68.79
12759;BME280;20944;47.048;15.390;2023-02-24T10:50:02;96676.88;;;12.38;68.86
12759;BME280;20944;47.048;15.390;2023-02-24T10:52:32;96662.59;;;12.26;69.21
12759;BME280;20944;47.048;15.390;2023-02-24T10:55:23;96609.59;;;11.83;69.15
12759;BME280;20944;47.048;15.390;2023-02-24T10:58:06;96617.31;;;12.04;69.69
12759;BME280;20944;47.048;15.390;2023-02-24T11:00:44;96646.22;;;12.38;70.10
12759;BME280;20944;47.048;15.390;2023-02-24T11:03:39;96594.47;;;12.23;68.15
12759;BME280;20944;47.048;15.390;2023-02-24T11:06:21;96630.28;;;12.41;70.66
12759;BME280;20944;47.048;15.390;2023-02-24T11:09:15;96538.56;;;11.86;70.46
12759;BME280;20944;47.048;15.390;2023-02-24T11:12:03;96563.66;;;11.92;70.79
12759;BME280;20944;47.048;15.390;2023-02-24T11:14:52;96624.09;;;12.25;71.42
12759;BME280;20944;47.048;15.390;2023-02-24T11:17:45;96602.28;;;12.07;71.28
12759;BME280;20944;47.048;15.390;2023-02-24T11:20:29;96613.56;;;12.27;72.52
12759;BME280;20944;47.048;15.390;2023-02-24T11:23:18;96599.53;;;12.43;69.57
12759;BME280;20944;47.048;15.390;2023-02-24T11:25:48;96606.44;;;12.62;68.86
12759;BME280;20944;47.048;15.390;2023-02-24T11:28:44;96598.38;;;12.82;69.11
12759;BME280;20944;47.048;15.390;2023-02-24T11:31:27;96569.47;;;12.98;68.41
12759;BME280;20944;47.048;15.390;2023-02-24T11:34:06;96576.13;;;13.37;66.68
12759;BME280;20944;47.048;15.390;2023-02-24T11:36:42;96568.88;;;13.56;64.15
12759;BME280;20944;47.048;15.390;2023-02-24T11:39:29;96563.97;;;13.66;63.29
12759;BME280;20944;47.048;15.390;2023-02-24T11:42:01;96542.56;;;13.72;64.20
12759;BME280;20944;47.048;15.390;2023-02-24T11:44:35;96532.50;;;13.79;63.16
12759;BME280;20944;47.048;15.390;2023-02-24T11:47:12;96543.41;;;14.17;60.68
12759;BME280;20944;47.048;15.390;2023-02-24T11:49:46;96495.13;;;14.02;61.15
12759;BME280;20944;47.048;15.390;2023-02-24T11:52:19;96529.25;;;14.34;60.69
12759;BME280;20944;47.048;15.390;2023-02-24T11:54:54;96535.75;;;14.56;61.19
12759;BME280;20944;47.048;15.390;2023-02-24T11:57:27;96528.53;;;14.60;58.90
12759;BME280;20944;47.048;15.390;2023-02-24T12:00:05;96522.47;;;14.58;58.72
12759;BME280;20944;47.048;15.390;2023-02-24T12:02:44;96493.94;;;14.22;58.64
12759;BME280;20944;47.048;15.390;2023-02-24T12:05:16;96518.50;;;14.22;60.27
12759;BME280;20944;47.048;15.390;2023-02-24T12:07:49;96504.63;;;14.04;58.99
12759;BME280;20944;47.048;15.390;2023-02-24T12:10:22;96508.47;;;13.99;59.29
12759;BME280;20944;47.048;15.390;2023-02-24T12:12:58;96505.19;;;13.95;60.18
12759;BME280;20944;47.048;15.390;2023-02-24T12:15:30;96416.16;;;13.58;60.76
12759;BME280;20944;47.048;15.390;2023-02-24T12:18:04;96492.41;;;14.18;60.02
12759;BME280;20944;47.048;15.390;2023-02-24T12:20:42;96447.34;;;14.08;58.49
12759;BME280;20944;47.048;15.390;2023-02-24T12:23:15;96481.59;;;14.37;59.31
12759;BME280;20944;47.048;15.390;2023-02-24T12:25:58;96479.25;;;14.18;57.79
12759;BME280;20944;47.048;15.390;2023-02-24T12:28:48;96465.59;;;13.97;59.05
12759;BME280;20944;47.048;15.390;2023-02-24T12:31:26;96463.91;;;13.96;59.65
12759;BME280;20944;47.048;15.390;2023-02-24T12:34:04;96456.94;;;14.09;59.92
12759;BME280;20944;47.048;15.390;2023-02-24T12:36:47;96455.81;;;14.27;59.52
12759;BME280;20944;47.048;15.390;2023-02-24T12:39:27;96430.69;;;14.36;57.91
12759;BME280;20944;47.048;15.390;2023-02-24T12:42:06;96443.38;;;14.58;58.94
12759;BME280;20944;47.048;15.390;2023-02-24T12:44:44;96439.50;;;14.78;58.03
12759;BME280;20944;47.048;15.390;2023-02-24T12:47:21;96432.91;;;14.85;57.50
12759;BME280;20944;47.048;15.390;2023-02-24T12:50:19;96423.09;;;14.87;58.30
12759;BME280;20944;47.048;15.390;2023-02-24T12:52:59;96429.88;;;14.91;56.20
12759;BME280;20944;47.048;15.390;2023-02-24T12:55:40;96414.81;;;15.06;57.46
12759;BME280;20944;47.048;15.390;2023-02-24T12:58:15;96399.72;;;15.35;55.54
12759;BME280;20944;47.048;15.390;2023-02-24T13:00:53;96389.84;;;15.64;54.38
12759;BME280;20944;47.048;15.390;2023-02-24T13:03:34;96395.47;;;15.98;54.66
12759;BME280;20944;47.048;15.390;2023-02-24T13:06:14;96395.09;;;16.28;53.01
12759;BME280;20944;47.048;15.390;2023-02-24T13:08:51;96379.06;;;16.31;52.33
12759;BME280;20944;47.048;15.390;2023-02-24T13:11:29;96370.56;;;16.38;51.83
12759;BME280;20944;47.048;15.390;2023-02-24T13:14:11;96371.78;;;16.58;50.85
12759;BME280;20944;47.048;15.390;2023-02-24T13:16:41;96376.41;;;16.67;50.29
12759;BME280;20944;47.048;15.390;2023-02-24T13:19:19;96326.78;;;16.47;49.72
12759;BME280;20944;47.048;15.390;2023-02-24T13:21:54;96369.25;;;16.93;50.07
12759;BME280;20944;47.048;15.390;2023-02-24T13:24:23;96365.06;;;17.26;49.20
12759;BME280;20944;47.048;15.390;2023-02-24T13:27:04;96354.47;;;17.61;48.47
12759;BME280;20944;47.048;15.390;2023-02-24T13:29:43;96348.72;;;17.90;47.35
12759;BME280;20944;47.048;15.390;2023-02-24T13:32:27;96343.78;;;17.96;45.97
12759;BME280;20944;47.048;15.390;2023-02-24T13:34:59;96302.13;;;17.41;46.01
12759;BME280;20944;47.048;15.390;2023-02-24T13:37:30;96321.44;;;17.54;45.62